createdAt,value
2019-02-06T00:00:53.505Z,99.993896
2019-02-06T00:02:03.009Z,99.993896
2019-02-06T00:03:12.529Z,99.993896
2019-02-06T00:04:22.021Z,99.993896
2019-02-06T00:05:32.521Z,99.993896
2019-02-06T00:06:42.035Z,99.993896
2019-02-06T00:07:51.538Z,99.993896
2019-02-06T00:09:01.032Z,99.993896
2019-02-06T00:10:10.552Z,99.993896
2019-02-06T00:11:20.123Z,99.993896
2019-02-06T00:12:29.633Z,99.993896
2019-02-06T00:13:39.178Z,99.993896
2019-02-06T00:14:48.683Z,99.993896
2019-02-06T00:15:58.228Z,99.993896
2019-02-06T00:17:07.741Z,99.993896
2019-02-06T00:18:17.274Z,99.993896
2019-02-06T00:19:26.780Z,99.993896
2019-02-06T00:20:36.266Z,99.945068
2019-02-06T00:21:45.791Z,99.993896
2019-02-06T00:22:55.291Z,99.993896
2019-02-06T00:24:04.811Z,99.945068
2019-02-06T00:25:14.320Z,99.945068
2019-02-06T00:26:23.852Z,99.945068
2019-02-06T00:27:33.368Z,99.945068
2019-02-06T00:28:42.881Z,99.987793
2019-02-06T00:29:52.392Z,99.987793
2019-02-06T00:31:01.906Z,99.945068
2019-02-06T00:32:11.431Z,99.987793
2019-02-06T00:33:20.941Z,99.987793
2019-02-06T00:34:30.474Z,99.987793
2019-02-06T00:35:39.986Z,99.987793
2019-02-06T00:36:49.521Z,99.987793
2019-02-06T00:37:59.031Z,99.987793
2019-02-06T00:39:09.530Z,99.987793
2019-02-06T00:40:19.046Z,99.884033
2019-02-06T00:41:28.557Z,99.77417
2019-02-06T00:42:38.101Z,99.77417
2019-02-06T00:43:47.611Z,99.77417
2019-02-06T00:44:57.119Z,99.822998
2019-02-06T00:46:06.688Z,99.822998
2019-02-06T00:47:16.209Z,99.822998
2019-02-06T00:48:25.718Z,99.822998
2019-02-06T00:49:35.236Z,99.822998
2019-02-06T00:50:44.757Z,99.822998
2019-02-06T00:51:54.273Z,99.822998
2019-02-06T00:53:03.813Z,99.822998
2019-02-06T00:54:13.335Z,99.822998
2019-02-06T00:55:22.868Z,99.822998
2019-02-06T00:56:32.387Z,99.822998
2019-02-06T00:57:41.920Z,99.822998
2019-02-06T00:58:51.428Z,99.822998
2019-02-06T01:00:00.966Z,99.713135
2019-02-06T01:01:10.489Z,99.713135
2019-02-06T01:02:20.023Z,99.713135
2019-02-06T01:03:29.549Z,99.822998
2019-02-06T01:04:39.051Z,99.822998
2019-02-06T01:05:48.584Z,99.822998
2019-02-06T01:06:58.082Z,99.926758
2019-02-06T01:08:07.587Z,99.926758
2019-02-06T01:09:17.143Z,99.822998
2019-02-06T01:10:26.669Z,99.713135
2019-02-06T01:11:36.184Z,99.713135
2019-02-06T01:12:45.696Z,99.865723
2019-02-06T01:13:55.200Z,99.822998
2019-02-06T01:15:04.700Z,99.822998
2019-02-06T01:16:14.230Z,99.822998
2019-02-06T01:17:25.812Z,99.822998
2019-02-06T01:18:33.231Z,99.822998
2019-02-06T01:19:42.752Z,99.822998
2019-02-06T01:20:52.379Z,99.822998
2019-02-06T01:22:01.881Z,99.822998
2019-02-06T01:23:11.396Z,99.822998
2019-02-06T01:24:20.905Z,99.822998
2019-02-06T01:25:30.432Z,99.822998
2019-02-06T01:26:39.941Z,99.713135
2019-02-06T01:27:49.458Z,99.713135
2019-02-06T01:28:58.978Z,99.713135
2019-02-06T01:30:08.486Z,99.609375
2019-02-06T01:31:18.010Z,99.609375
2019-02-06T01:32:27.517Z,99.609375
2019-02-06T01:33:37.043Z,99.609375
2019-02-06T01:34:46.542Z,99.609375
2019-02-06T01:35:56.065Z,99.609375
2019-02-06T01:37:05.582Z,99.6521
2019-02-06T01:38:15.082Z,99.609375
2019-02-06T01:39:24.586Z,99.609375
2019-02-06T01:40:34.106Z,99.609375
2019-02-06T01:41:43.740Z,99.609375
2019-02-06T01:42:53.262Z,99.609375
2019-02-06T01:44:02.793Z,99.609375
2019-02-06T01:45:12.325Z,99.609375
2019-02-06T01:46:21.858Z,99.505615
2019-02-06T01:47:31.375Z,99.505615
2019-02-06T01:48:40.909Z,99.505615
2019-02-06T01:49:50.419Z,99.505615
2019-02-06T01:50:59.965Z,99.54834
2019-02-06T01:52:09.465Z,99.54834
2019-02-06T01:53:18.968Z,99.54834
2019-02-06T01:54:28.478Z,99.44458
2019-02-06T01:55:38.015Z,99.54834
2019-02-06T01:56:47.531Z,99.44458
2019-02-06T01:57:57.040Z,99.44458
2019-02-06T01:59:06.531Z,99.44458
2019-02-06T02:00:17.021Z,99.44458
2019-02-06T02:01:26.533Z,99.44458
2019-02-06T02:02:36.052Z,99.334717
2019-02-06T02:03:45.575Z,99.334717
2019-02-06T02:04:55.085Z,99.383545
2019-02-06T02:06:04.617Z,99.487305
2019-02-06T02:07:14.133Z,99.487305
2019-02-06T02:08:23.651Z,99.487305
2019-02-06T02:09:33.178Z,99.487305
2019-02-06T02:10:42.727Z,99.44458
2019-02-06T02:11:52.238Z,99.383545
2019-02-06T02:13:01.746Z,99.383545
2019-02-06T02:14:11.248Z,99.383545
2019-02-06T02:15:20.768Z,99.383545
2019-02-06T02:16:30.298Z,99.383545
2019-02-06T02:17:39.819Z,99.383545
2019-02-06T02:18:49.314Z,99.383545
2019-02-06T02:19:58.839Z,99.383545
2019-02-06T02:21:08.418Z,99.383545
2019-02-06T02:22:17.949Z,99.383545
2019-02-06T02:23:27.453Z,99.383545
2019-02-06T02:24:36.971Z,99.383545
2019-02-06T02:25:46.490Z,99.383545
2019-02-06T02:26:56.036Z,99.273682
2019-02-06T02:28:05.561Z,99.32251
2019-02-06T02:29:15.076Z,99.32251
2019-02-06T02:30:24.582Z,99.32251
2019-02-06T02:31:34.116Z,99.212646
2019-02-06T02:32:43.654Z,99.212646
2019-02-06T02:33:53.199Z,99.212646
2019-02-06T02:35:02.733Z,99.212646
2019-02-06T02:36:15.451Z,99.212646
2019-02-06T02:37:21.776Z,99.212646
2019-02-06T02:38:31.297Z,99.212646
2019-02-06T02:39:40.825Z,99.32251
2019-02-06T02:40:50.342Z,99.32251
2019-02-06T02:41:59.864Z,99.32251
2019-02-06T02:43:09.399Z,99.32251
2019-02-06T02:44:18.956Z,99.32251
2019-02-06T02:45:28.537Z,99.32251
2019-02-06T02:46:38.103Z,99.32251
2019-02-06T02:47:47.624Z,99.365234
2019-02-06T02:48:57.136Z,99.365234
2019-02-06T02:50:06.669Z,99.468994
2019-02-06T02:51:16.219Z,99.468994
2019-02-06T02:52:25.715Z,99.468994
2019-02-06T02:53:35.270Z,99.468994
2019-02-06T02:54:44.782Z,99.42627
2019-02-06T02:55:54.406Z,99.42627
2019-02-06T02:57:03.810Z,99.42627
2019-02-06T02:58:13.351Z,99.42627
2019-02-06T02:59:22.891Z,99.42627
2019-02-06T03:00:32.395Z,99.42627
2019-02-06T03:01:41.917Z,99.32251
2019-02-06T03:02:51.429Z,99.212646
2019-02-06T03:04:00.968Z,99.212646
2019-02-06T03:05:10.487Z,99.212646
2019-02-06T03:06:27.951Z,99.151611
2019-02-06T03:07:30.454Z,99.108887
2019-02-06T03:08:39.971Z,99.151611
2019-02-06T03:09:49.521Z,99.047852
2019-02-06T03:10:59.039Z,99.047852
2019-02-06T03:12:08.531Z,98.937988
2019-02-06T03:13:18.055Z,98.937988
2019-02-06T03:14:27.580Z,98.937988
2019-02-06T03:15:37.090Z,98.937988
2019-02-06T03:16:46.650Z,98.937988
2019-02-06T03:17:56.278Z,98.834229
2019-02-06T03:19:05.950Z,98.834229
2019-02-06T03:20:15.566Z,98.834229
2019-02-06T03:21:25.128Z,98.834229
2019-02-06T03:22:34.668Z,98.730469
2019-02-06T03:23:44.166Z,98.876953
2019-02-06T03:24:53.721Z,98.986816
2019-02-06T03:26:03.258Z,99.090576
2019-02-06T03:27:12.778Z,99.090576
2019-02-06T03:28:22.382Z,99.194336
2019-02-06T03:29:31.856Z,99.151611
2019-02-06T03:30:41.370Z,99.261475
2019-02-06T03:31:50.880Z,99.261475
2019-02-06T03:33:00.403Z,99.261475
2019-02-06T03:34:09.936Z,99.261475
2019-02-06T03:35:19.464Z,99.261475
2019-02-06T03:36:39.768Z,99.365234
2019-02-06T03:37:39.485Z,99.365234
2019-02-06T03:38:48.985Z,99.468994
2019-02-06T03:39:58.510Z,99.468994
2019-02-06T03:41:08.028Z,99.578857
2019-02-06T03:42:17.556Z,99.578857
2019-02-06T03:43:27.060Z,99.639893
2019-02-06T03:44:36.572Z,99.639893
2019-02-06T03:45:46.087Z,99.639893
2019-02-06T03:46:55.601Z,99.639893
2019-02-06T03:48:05.111Z,99.743652
2019-02-06T03:49:14.647Z,99.743652
2019-02-06T03:50:24.177Z,99.743652
2019-02-06T03:51:33.686Z,99.847412
2019-02-06T03:52:43.248Z,99.847412
2019-02-06T03:53:52.760Z,99.847412
2019-02-06T03:55:02.274Z,99.908447
2019-02-06T03:56:11.782Z,99.908447
2019-02-06T03:57:21.300Z,99.908447
2019-02-06T03:58:30.905Z,99.908447
2019-02-06T03:59:40.466Z,99.804688
2019-02-06T04:00:49.978Z,99.908447
2019-02-06T04:01:59.483Z,99.908447
2019-02-06T04:03:09.022Z,99.908447
2019-02-06T04:04:18.548Z,99.908447
2019-02-06T04:05:28.064Z,99.908447
2019-02-06T04:06:37.567Z,99.908447
2019-02-06T04:07:48.082Z,99.993896
2019-02-06T04:08:57.589Z,99.969482
2019-02-06T04:10:07.129Z,99.865723
2019-02-06T04:11:16.649Z,99.908447
2019-02-06T04:12:26.148Z,99.908447
2019-02-06T04:13:35.670Z,99.908447
2019-02-06T04:14:45.203Z,99.908447
2019-02-06T04:15:54.719Z,99.908447
2019-02-06T04:17:04.225Z,99.908447
2019-02-06T04:18:13.747Z,99.993896
2019-02-06T04:19:23.313Z,99.908447
2019-02-06T04:20:32.824Z,99.993896
2019-02-06T04:21:42.338Z,99.908447
2019-02-06T04:22:51.869Z,99.908447
2019-02-06T04:24:01.408Z,99.908447
2019-02-06T04:25:10.941Z,99.908447
2019-02-06T04:26:20.488Z,99.908447
2019-02-06T04:27:29.970Z,99.908447
2019-02-06T04:28:39.492Z,99.908447
2019-02-06T04:29:49.015Z,99.804688
2019-02-06T04:30:58.540Z,99.804688
2019-02-06T04:32:08.056Z,99.804688
2019-02-06T04:33:17.562Z,99.804688
2019-02-06T04:34:27.094Z,99.804688
2019-02-06T04:35:36.629Z,99.700928
2019-02-06T04:36:46.161Z,99.700928
2019-02-06T04:37:55.668Z,99.591064
2019-02-06T04:39:05.183Z,99.639893
2019-02-06T04:40:14.725Z,99.530029
2019-02-06T04:41:24.231Z,99.42627
2019-02-06T04:42:33.757Z,99.42627
2019-02-06T04:43:43.271Z,99.42627
2019-02-06T04:44:52.784Z,99.32251
2019-02-06T04:46:02.301Z,99.212646
2019-02-06T04:47:11.844Z,99.261475
2019-02-06T04:48:21.369Z,99.151611
2019-02-06T04:49:30.873Z,99.047852
2019-02-06T04:50:40.414Z,99.090576
2019-02-06T04:51:49.932Z,99.090576
2019-02-06T04:52:59.431Z,99.090576
2019-02-06T04:54:08.956Z,99.090576
2019-02-06T04:55:18.475Z,99.090576
2019-02-06T04:56:28.003Z,99.090576
2019-02-06T04:57:37.501Z,99.047852
2019-02-06T04:58:47.032Z,99.047852
2019-02-06T04:59:56.577Z,99.047852
2019-02-06T05:01:06.104Z,98.937988
2019-02-06T05:02:15.610Z,98.773193
2019-02-06T05:03:25.769Z,98.876953
2019-02-06T05:04:34.631Z,98.773193
2019-02-06T05:05:44.206Z,98.876953
2019-02-06T05:06:53.711Z,98.876953
2019-02-06T05:08:03.238Z,98.876953
2019-02-06T05:09:12.742Z,98.876953
2019-02-06T05:10:22.279Z,98.773193
2019-02-06T05:11:31.771Z,98.730469
2019-02-06T05:12:41.275Z,98.55957
2019-02-06T05:13:50.890Z,98.55957
2019-02-06T05:15:00.335Z,98.55957
2019-02-06T05:16:09.832Z,98.55957
2019-02-06T05:17:19.357Z,98.55957
2019-02-06T05:18:28.864Z,98.602295
2019-02-06T05:19:38.367Z,98.712158
2019-02-06T05:20:47.882Z,98.669434
2019-02-06T05:21:57.383Z,98.773193
2019-02-06T05:23:06.896Z,98.876953
2019-02-06T05:24:16.421Z,98.876953
2019-02-06T05:25:25.942Z,98.773193
2019-02-06T05:26:35.472Z,98.669434
2019-02-06T05:27:44.979Z,98.669434
2019-02-06T05:28:54.511Z,98.55957
2019-02-06T05:30:04.021Z,98.55957
2019-02-06T05:31:13.557Z,98.413086
2019-02-06T05:32:23.080Z,98.303223
2019-02-06T05:33:32.600Z,98.199463
2019-02-06T05:34:42.100Z,98.199463
2019-02-06T05:35:51.655Z,98.0896
2019-02-06T05:37:01.176Z,97.98584
2019-02-06T05:38:10.686Z,97.711182
2019-02-06T05:39:20.527Z,97.607422
2019-02-06T05:40:29.768Z,97.497559
2019-02-06T05:41:39.432Z,97.393799
2019-02-06T05:42:49.038Z,97.332764
2019-02-06T05:43:58.385Z,97.290039
2019-02-06T05:45:07.903Z,97.2229
2019-02-06T05:46:17.415Z,97.2229
2019-02-06T05:47:26.956Z,97.119141
2019-02-06T05:48:36.476Z,97.015381
2019-02-06T05:49:46.043Z,96.905518
2019-02-06T05:50:55.622Z,96.801758
2019-02-06T05:52:05.198Z,96.691895
2019-02-06T05:53:14.805Z,96.588135
2019-02-06T05:54:24.346Z,96.588135
2019-02-06T05:55:33.866Z,96.691895
2019-02-06T05:56:43.563Z,96.691895
2019-02-06T05:57:53.216Z,96.801758
2019-02-06T05:59:02.606Z,96.801758
2019-02-06T06:00:12.138Z,96.801758
2019-02-06T06:01:21.653Z,96.691895
2019-02-06T06:02:32.180Z,96.588135
2019-02-06T06:03:41.707Z,96.5271
2019-02-06T06:04:51.221Z,96.417236
2019-02-06T06:06:00.760Z,96.5271
2019-02-06T06:07:10.356Z,96.5271
2019-02-06T06:08:19.882Z,96.5271
2019-02-06T06:09:29.376Z,96.5271
2019-02-06T06:10:38.880Z,96.5271
2019-02-06T06:11:48.431Z,96.630859
2019-02-06T06:12:57.960Z,96.734619
2019-02-06T06:14:07.514Z,96.734619
2019-02-06T06:15:17.073Z,96.734619
2019-02-06T06:16:26.609Z,96.734619
2019-02-06T06:17:36.121Z,96.734619
2019-02-06T06:18:45.664Z,96.734619
2019-02-06T06:19:55.179Z,96.734619
2019-02-06T06:21:04.682Z,96.734619
2019-02-06T06:22:14.212Z,96.734619
2019-02-06T06:23:23.739Z,96.630859
2019-02-06T06:24:33.252Z,96.630859
2019-02-06T06:25:42.792Z,96.630859
2019-02-06T06:26:52.311Z,96.630859
2019-02-06T06:28:01.838Z,96.630859
2019-02-06T06:29:11.360Z,96.734619
2019-02-06T06:30:20.893Z,96.734619
2019-02-06T06:31:30.434Z,96.734619
2019-02-06T06:32:39.947Z,96.734619
2019-02-06T06:33:49.460Z,96.734619
2019-02-06T06:34:58.995Z,96.734619
2019-02-06T06:36:08.526Z,96.844482
2019-02-06T06:37:18.059Z,96.844482
2019-02-06T06:38:27.586Z,96.844482
2019-02-06T06:39:37.137Z,96.844482
2019-02-06T06:40:46.660Z,96.948242
2019-02-06T06:41:57.187Z,96.948242
2019-02-06T06:43:06.771Z,97.058105
2019-02-06T06:44:16.236Z,97.161865
2019-02-06T06:45:25.754Z,97.058105
2019-02-06T06:46:35.298Z,97.058105
2019-02-06T06:47:44.877Z,97.161865
2019-02-06T06:48:54.423Z,97.161865
2019-02-06T06:50:03.952Z,97.161865
2019-02-06T06:51:13.514Z,97.161865
2019-02-06T06:52:23.045Z,97.161865
2019-02-06T06:53:32.766Z,97.161865
2019-02-06T06:54:42.224Z,97.265625
2019-02-06T06:55:51.751Z,97.161865
2019-02-06T06:57:01.291Z,97.161865
2019-02-06T06:58:10.798Z,97.265625
2019-02-06T06:59:20.349Z,97.265625
2019-02-06T07:00:29.904Z,97.375488
2019-02-06T07:01:39.487Z,97.375488
2019-02-06T07:02:49.051Z,97.375488
2019-02-06T07:03:58.588Z,97.479248
2019-02-06T07:05:08.142Z,97.479248
2019-02-06T07:06:17.670Z,97.479248
2019-02-06T07:07:27.198Z,97.479248
2019-02-06T07:08:36.721Z,97.479248
2019-02-06T07:09:46.246Z,97.479248
2019-02-06T07:10:55.756Z,97.436523
2019-02-06T07:12:05.369Z,97.436523
2019-02-06T07:13:14.825Z,97.436523
2019-02-06T07:14:25.325Z,97.332764
2019-02-06T07:15:34.854Z,97.2229
2019-02-06T07:16:44.385Z,97.119141
2019-02-06T07:17:53.911Z,97.119141
2019-02-06T07:19:03.421Z,97.015381
2019-02-06T07:20:12.954Z,96.905518
2019-02-06T07:21:22.467Z,96.759033
2019-02-06T07:22:31.998Z,96.64917
2019-02-06T07:23:41.542Z,96.64917
2019-02-06T07:24:51.049Z,96.435547
2019-02-06T07:26:00.565Z,96.435547
2019-02-06T07:27:10.132Z,96.331787
2019-02-06T07:28:19.635Z,96.435547
2019-02-06T07:29:29.156Z,96.392822
2019-02-06T07:30:38.672Z,96.392822
2019-02-06T07:31:48.181Z,96.228027
2019-02-06T07:32:57.724Z,96.118164
2019-02-06T07:34:07.248Z,96.331787
2019-02-06T07:35:16.771Z,96.289062
2019-02-06T07:36:26.285Z,96.392822
2019-02-06T07:37:35.831Z,96.392822
2019-02-06T07:38:45.333Z,96.246338
2019-02-06T07:39:54.868Z,96.142578
2019-02-06T07:41:04.395Z,95.928955
2019-02-06T07:42:13.909Z,95.819092
2019-02-06T07:43:23.469Z,95.501709
2019-02-06T07:44:33.018Z,95.501709
2019-02-06T07:45:42.583Z,95.611572
2019-02-06T07:46:52.123Z,95.715332
2019-02-06T07:48:01.704Z,95.672607
2019-02-06T07:49:11.213Z,95.568848
2019-02-06T07:50:20.740Z,95.397949
2019-02-06T07:51:30.243Z,95.355225
2019-02-06T07:52:39.801Z,95.355225
2019-02-06T07:53:49.315Z,95.526123
2019-02-06T07:54:58.842Z,95.526123
2019-02-06T07:56:08.397Z,95.373535
2019-02-06T07:57:17.895Z,95.056152
2019-02-06T07:58:27.418Z,94.848633
2019-02-06T07:59:36.937Z,94.73877
2019-02-06T08:00:46.473Z,94.482422
2019-02-06T08:01:56.002Z,94.482422
2019-02-06T08:03:05.556Z,94.482422
2019-02-06T08:04:15.106Z,94.335938
2019-02-06T08:05:24.623Z,94.232178
2019-02-06T08:06:34.141Z,93.811035
2019-02-06T08:07:43.671Z,93.811035
2019-02-06T08:08:53.191Z,94.018555
2019-02-06T08:10:02.703Z,93.97583
2019-02-06T08:11:12.226Z,93.87207
2019-02-06T08:12:21.783Z,93.87207
2019-02-06T08:13:31.311Z,93.615723
2019-02-06T08:14:40.876Z,93.29834
2019-02-06T08:15:50.385Z,93.408203
2019-02-06T08:16:59.907Z,93.365479
2019-02-06T08:18:09.468Z,92.944336
2019-02-06T08:19:19.012Z,92.730713
2019-02-06T08:20:28.536Z,92.687988
2019-02-06T08:21:38.063Z,92.791748
2019-02-06T08:22:47.663Z,92.584229
2019-02-06T08:23:58.164Z,92.163086
2019-02-06T08:25:07.676Z,91.699219
2019-02-06T08:26:17.207Z,91.589355
2019-02-06T08:27:26.707Z,91.278076
2019-02-06T08:28:36.261Z,91.021729
2019-02-06T08:29:45.874Z,91.235352
2019-02-06T08:30:55.313Z,91.442871
2019-02-06T08:32:04.855Z,90.979004
2019-02-06T08:33:14.390Z,90.350342
2019-02-06T08:34:23.902Z,90.032959
2019-02-06T08:35:33.464Z,89.715576
2019-02-06T08:36:42.970Z,89.611816
2019-02-06T08:37:52.479Z,89.611816
2019-02-06T08:39:02.029Z,89.508057
2019-02-06T08:40:11.573Z,89.465332
2019-02-06T08:41:21.073Z,89.569092
2019-02-06T08:42:30.593Z,88.830566
2019-02-06T08:43:40.137Z,88.305664
2019-02-06T08:44:49.645Z,88.830566
2019-02-06T08:45:59.166Z,89.251709
2019-02-06T08:47:08.695Z,88.623047
2019-02-06T08:48:19.249Z,88.409424
2019-02-06T08:49:28.757Z,88.476562
2019-02-06T08:50:38.269Z,88.690186
2019-02-06T08:51:47.842Z,88.372803
2019-02-06T08:52:57.311Z,87.738037
2019-02-06T08:54:06.866Z,87.176514
2019-02-06T08:55:16.391Z,87.487793
2019-02-06T08:56:25.986Z,87.176514
2019-02-06T08:57:35.512Z,86.541748
2019-02-06T08:58:45.040Z,86.334229
2019-02-06T08:59:54.554Z,85.565186
2019-02-06T09:01:04.062Z,86.724854
2019-02-06T09:02:13.607Z,87.249756
2019-02-06T09:03:23.123Z,88.15918
2019-02-06T09:04:32.657Z,87.95166
2019-02-06T09:05:42.195Z,88.018799
2019-02-06T09:06:51.715Z,87.280273
2019-02-06T09:08:01.248Z,87.030029
2019-02-06T09:09:10.779Z,86.816406
2019-02-06T09:10:20.299Z,86.358643
2019-02-06T09:11:29.828Z,85.72998
2019-02-06T09:12:39.347Z,85.266113
2019-02-06T09:13:48.882Z,85.479736
2019-02-06T09:14:58.405Z,84.25293
2019-02-06T09:16:07.930Z,84.051514
2019-02-06T09:17:17.476Z,85.949707
2019-02-06T09:18:26.998Z,87.597656
2019-02-06T09:19:36.554Z,87.030029
2019-02-06T09:20:46.089Z,86.04126
2019-02-06T09:21:56.590Z,86.108398
2019-02-06T09:23:06.110Z,84.741211
2019-02-06T09:24:15.659Z,84.954834
2019-02-06T09:25:25.193Z,84.14917
2019-02-06T09:26:36.227Z,84.04541
2019-02-06T09:27:44.238Z,84.472656
2019-02-06T09:28:53.781Z,86.645508
2019-02-06T09:30:03.286Z,87.06665
2019-02-06T09:31:12.811Z,86.053467
2019-02-06T09:32:22.329Z,86.157227
2019-02-06T09:33:31.869Z,86.474609
2019-02-06T09:34:41.409Z,86.895752
2019-02-06T09:35:50.993Z,87.176514
2019-02-06T09:37:00.466Z,86.816406
2019-02-06T09:38:09.978Z,85.83374
2019-02-06T09:39:19.532Z,84.570312
2019-02-06T09:40:29.066Z,84.216309
2019-02-06T09:41:38.688Z,83.477783
2019-02-06T09:42:48.112Z,83.862305
2019-02-06T09:43:57.661Z,82.781982
2019-02-06T09:45:07.186Z,84.533691
2019-02-06T09:46:16.696Z,84.741211
2019-02-06T09:47:26.229Z,84.423828
2019-02-06T09:48:35.771Z,83.764648
2019-02-06T09:49:45.300Z,85.528564
2019-02-06T09:50:54.861Z,87.487793
2019-02-06T09:52:04.386Z,87.408447
2019-02-06T09:53:13.903Z,85.620117
2019-02-06T09:54:23.451Z,85.058594
2019-02-06T09:55:32.996Z,84.60083
2019-02-06T09:56:42.527Z,83.612061
2019-02-06T09:57:52.045Z,82.775879
2019-02-06T09:59:01.611Z,82.562256
2019-02-06T10:00:12.124Z,82.037354
2019-02-06T10:01:21.732Z,82.037354
2019-02-06T10:02:32.144Z,82.214355
2019-02-06T10:03:41.657Z,81.762695
2019-02-06T10:04:52.169Z,83.544922
2019-02-06T10:06:01.722Z,82.91626
2019-02-06T10:07:11.270Z,82.672119
2019-02-06T10:08:20.844Z,82.983398
2019-02-06T10:09:30.455Z,83.154297
2019-02-06T10:10:40.082Z,82.281494
2019-02-06T10:11:49.667Z,81.018066
2019-02-06T10:12:59.263Z,80.957031
2019-02-06T10:14:08.849Z,82.568359
2019-02-06T10:15:18.430Z,84.216309
2019-02-06T10:16:28.017Z,83.795166
2019-02-06T10:17:37.599Z,82.952881
2019-02-06T10:18:47.190Z,84.179688
2019-02-06T10:19:56.852Z,84.204102
2019-02-06T10:21:06.402Z,82.806396
2019-02-06T10:22:16.019Z,80.773926
2019-02-06T10:23:25.581Z,79.79126
2019-02-06T10:24:35.214Z,79.229736
2019-02-06T10:25:44.829Z,78.778076
2019-02-06T10:26:54.433Z,79.266357
2019-02-06T10:28:03.985Z,78.179932
2019-02-06T10:29:13.593Z,75.671387
2019-02-06T10:30:24.143Z,78.082275
2019-02-06T10:31:33.676Z,79.022217
2019-02-06T10:32:44.191Z,78.045654
2019-02-06T10:33:53.718Z,77.380371
2019-02-06T10:35:03.277Z,77.313232
2019-02-06T10:36:12.809Z,76.928711
2019-02-06T10:37:22.327Z,78.356934
2019-02-06T10:38:32.844Z,77.380371
2019-02-06T10:39:42.379Z,78.363037
2019-02-06T10:40:51.910Z,79.937744
2019-02-06T10:42:01.440Z,81.408691
2019-02-06T10:43:10.973Z,80.743408
2019-02-06T10:44:20.513Z,79.693604
2019-02-06T10:45:30.067Z,80.291748
2019-02-06T10:46:39.592Z,81.481934
2019-02-06T10:47:49.123Z,83.233643
2019-02-06T10:48:58.653Z,82.525635
2019-02-06T10:50:08.215Z,81.121826
2019-02-06T10:51:17.732Z,79.89502
2019-02-06T10:52:28.284Z,78.112793
2019-02-06T10:53:37.797Z,78.430176
2019-02-06T10:54:47.343Z,78.289795
2019-02-06T10:55:56.857Z,79.870605
2019-02-06T10:57:06.364Z,81.616211
2019-02-06T10:58:15.885Z,81.268311
2019-02-06T10:59:25.416Z,82.037354
2019-02-06T11:00:34.958Z,81.964111
2019-02-06T11:01:44.499Z,81.610107
2019-02-06T11:02:54.017Z,79.79126
2019-02-06T11:04:03.539Z,79.650879
2019-02-06T11:05:13.080Z,78.778076
2019-02-06T11:06:22.589Z,77.69165
2019-02-06T11:07:32.120Z,76.403809
2019-02-06T11:08:41.626Z,75.952148
2019-02-06T11:09:51.187Z,74.591064
2019-02-06T11:11:00.696Z,74.243164
2019-02-06T11:12:10.218Z,74.310303
2019-02-06T11:13:19.736Z,73.791504
2019-02-06T11:14:29.253Z,73.162842
2019-02-06T11:15:38.804Z,72.503662
2019-02-06T11:16:48.302Z,72.08252
2019-02-06T11:17:57.816Z,71.356201
2019-02-06T11:19:07.333Z,73.754883
2019-02-06T11:20:16.868Z,74.761963
2019-02-06T11:21:26.380Z,74.835205
2019-02-06T11:22:35.914Z,73.651123
2019-02-06T11:23:45.455Z,72.607422
2019-02-06T11:24:54.958Z,72.576904
2019-02-06T11:26:04.482Z,71.844482
2019-02-06T11:27:14.018Z,70.587158
2019-02-06T11:28:23.548Z,70.587158
2019-02-06T11:29:33.088Z,70.141602
2019-02-06T11:30:42.602Z,70.349121
2019-02-06T11:31:52.114Z,70.214844
2019-02-06T11:33:01.644Z,69.793701
2019-02-06T11:34:11.202Z,69.659424
2019-02-06T11:35:20.832Z,69.659424
2019-02-06T11:36:30.375Z,69.525146
2019-02-06T11:37:40.688Z,69.073486
2019-02-06T11:38:50.215Z,68.658447
2019-02-06T11:39:59.716Z,68.103027
2019-02-06T11:41:09.270Z,67.791748
2019-02-06T11:42:18.807Z,66.96167
2019-02-06T11:43:28.337Z,67.510986
2019-02-06T11:44:37.864Z,68.029785
2019-02-06T11:45:47.376Z,67.718506
2019-02-06T11:46:56.891Z,67.791748
2019-02-06T11:48:06.393Z,67.06543
2019-02-06T11:49:15.925Z,67.86499
2019-02-06T11:50:25.436Z,66.650391
2019-02-06T11:51:34.948Z,67.138672
2019-02-06T11:52:44.479Z,67.138672
2019-02-06T11:53:53.998Z,65.991211
2019-02-06T11:55:03.546Z,66.271973
2019-02-06T11:56:14.051Z,66.064453
2019-02-06T11:57:24.197Z,65.753174
2019-02-06T11:58:33.126Z,65.515137
2019-02-06T11:59:42.677Z,64.819336
2019-02-06T12:00:52.216Z,65.740967
2019-02-06T12:02:01.735Z,67.993164
2019-02-06T12:03:11.249Z,69.030762
2019-02-06T12:04:20.899Z,68.688965
2019-02-06T12:05:30.337Z,68.54248
2019-02-06T12:06:39.854Z,70.800781
2019-02-06T12:07:49.385Z,71.42334
2019-02-06T12:08:58.932Z,71.600342
2019-02-06T12:10:10.096Z,71.081543
2019-02-06T12:11:17.945Z,71.044922
2019-02-06T12:12:27.461Z,70.599365
2019-02-06T12:13:37.001Z,70.739746
2019-02-06T12:14:46.537Z,69.63501
2019-02-06T12:15:56.049Z,67.730713
2019-02-06T12:17:05.586Z,65.930176
2019-02-06T12:18:15.103Z,66.345215
2019-02-06T12:19:24.661Z,65.826416
2019-02-06T12:20:34.180Z,66.241455
2019-02-06T12:21:43.723Z,65.899658
2019-02-06T12:22:53.236Z,65.899658
2019-02-06T12:24:02.785Z,66.107178
2019-02-06T12:25:12.375Z,65.588379
2019-02-06T12:26:21.911Z,64.801025
2019-02-06T12:27:31.445Z,63.452148
2019-02-06T12:28:40.967Z,64.147949
2019-02-06T12:29:50.492Z,62.878418
2019-02-06T12:31:00.009Z,61.340332
2019-02-06T12:32:09.510Z,59.552002
2019-02-06T12:33:19.034Z,59.942627
2019-02-06T12:34:28.585Z,61.425781
2019-02-06T12:35:38.103Z,62.04834
2019-02-06T12:36:47.642Z,62.93335
2019-02-06T12:37:57.154Z,62.93335
2019-02-06T12:39:06.659Z,62.652588
2019-02-06T12:40:21.353Z,66.033936
2019-02-06T12:41:26.707Z,66.40625
2019-02-06T12:42:36.236Z,68.969727
2019-02-06T12:43:45.748Z,71.160889
2019-02-06T12:44:55.317Z,70.880127
2019-02-06T12:46:04.836Z,71.160889
2019-02-06T12:47:14.353Z,70.812988
2019-02-06T12:48:23.881Z,69.73877
2019-02-06T12:49:33.483Z,69.488525
2019-02-06T12:50:43.019Z,71.606445
2019-02-06T12:51:52.700Z,73.339844
2019-02-06T12:53:02.082Z,73.449707
2019-02-06T12:54:11.639Z,74.212646
2019-02-06T12:55:21.356Z,73.968506
2019-02-06T12:56:30.806Z,73.132324
2019-02-06T12:57:40.317Z,74.176025
2019-02-06T12:58:49.909Z,76.092529
2019-02-06T12:59:59.489Z,73.553467
2019-02-06T13:01:08.966Z,72.650146
2019-02-06T13:02:18.497Z,70.678711
2019-02-06T13:03:28.048Z,69.470215
2019-02-06T13:04:37.583Z,67.608643
2019-02-06T13:05:47.103Z,65.515137
2019-02-06T13:06:56.640Z,62.268066
2019-02-06T13:08:06.154Z,60.968018
2019-02-06T13:09:15.669Z,59.906006
2019-02-06T13:10:33.161Z,60.968018
2019-02-06T13:11:35.706Z,60.968018
2019-02-06T13:12:45.226Z,61.547852
2019-02-06T13:13:54.742Z,61.651611
2019-02-06T13:15:04.275Z,61.444092
2019-02-06T13:16:13.821Z,59.698486
2019-02-06T13:17:24.340Z,58.300781